createdAt,value
2019-05-07T00:02:22.685Z,101630.36
2019-05-07T00:04:52.270Z,101639.73
2019-05-07T00:07:22.398Z,101635.91
2019-05-07T00:09:52.594Z,101643.23
2019-05-07T00:12:23.014Z,101627.72
2019-05-07T00:15:00.931Z,101625.17
2019-05-07T00:17:22.871Z,101634.17
2019-05-07T00:19:52.606Z,101626.84
2019-05-07T00:22:22.769Z,101626.14
2019-05-07T00:24:52.166Z,101616.52
2019-05-07T00:27:22.602Z,101620.49
2019-05-07T00:29:52.055Z,101610.52
2019-05-07T00:32:22.134Z,101616.78
2019-05-07T00:34:55.815Z,101616.43
2019-05-07T00:37:25.876Z,101611.05
2019-05-07T00:39:58.651Z,101620.70
2019-05-07T00:42:44.933Z,101617.11
2019-05-07T00:45:23.784Z,101619.19
2019-05-07T00:47:52.103Z,101617.27
2019-05-07T00:50:25.120Z,101618.88
2019-05-07T00:52:53.631Z,101627.77
2019-05-07T00:55:22.805Z,101631.73
2019-05-07T00:57:52.596Z,101626.66
2019-05-07T01:00:22.351Z,101627.58
2019-05-07T01:02:52.515Z,101616.39
2019-05-07T01:05:23.122Z,101618.78
2019-05-07T01:07:52.964Z,101621.42
2019-05-07T01:10:22.354Z,101617.11
2019-05-07T01:12:53.007Z,101623.86
2019-05-07T01:15:30.456Z,101621.33
2019-05-07T01:17:52.106Z,101615.94
2019-05-07T01:20:22.160Z,101613.30
2019-05-07T01:22:54.199Z,101618.12
2019-05-07T01:25:22.075Z,101618.94
2019-05-07T01:27:50.654Z,101611.00
2019-05-07T01:30:19.434Z,101612.33
2019-05-07T01:33:02.754Z,101619.91
2019-05-07T01:35:32.945Z,101627.63
2019-05-07T01:38:03.151Z,101625.38
2019-05-07T01:40:32.354Z,101621.88
2019-05-07T01:43:02.544Z,101625.38
2019-05-07T01:45:43.209Z,101625.12
2019-05-07T01:48:04.381Z,101624.98
2019-05-07T01:50:32.431Z,101624.84
2019-05-07T01:53:00.856Z,101623.62
2019-05-07T01:55:31.765Z,101623.86
2019-05-07T01:57:59.682Z,101632.00
2019-05-07T02:00:28.107Z,101628.75
2019-05-07T02:02:58.216Z,101630.07
2019-05-07T02:05:34.408Z,101629.25
2019-05-07T02:08:08.628Z,101625.04
2019-05-07T02:10:42.828Z,101626.62
2019-05-07T02:13:12.604Z,101627.94
2019-05-07T02:15:42.801Z,101624.33
2019-05-07T02:18:12.588Z,101629.61
2019-05-07T02:20:42.650Z,101638.05
2019-05-07T02:23:12.858Z,101636.13
2019-05-07T02:25:42.022Z,101645.31
2019-05-07T02:28:12.733Z,101647.50
2019-05-07T02:30:44.375Z,101640.90
2019-05-07T02:33:13.786Z,101643.80
2019-05-07T02:35:43.952Z,101645.41
2019-05-07T02:38:16.457Z,101644.19
2019-05-07T02:40:46.527Z,101642.52
2019-05-07T02:43:15.017Z,101640.23
2019-05-07T02:45:45.138Z,101649.48
2019-05-07T02:48:14.890Z,101657.41
2019-05-07T02:50:44.901Z,101654.16
2019-05-07T02:53:33.955Z,101659.55
2019-05-07T02:56:04.004Z,101661.23
2019-05-07T02:58:33.228Z,101643.69
2019-05-07T03:01:04.754Z,101648.97
2019-05-07T03:03:33.439Z,101644.30
2019-05-07T03:06:03.008Z,101650.91
2019-05-07T03:08:33.059Z,101649.98
2019-05-07T03:11:03.346Z,101648.05
2019-05-07T03:13:33.681Z,101647.34
2019-05-07T03:16:03.797Z,101651.30
2019-05-07T03:18:33.415Z,101657.70
2019-05-07T03:21:03.847Z,101656.98
2019-05-07T03:23:34.293Z,101647.59
2019-05-07T03:26:04.489Z,101638.45
2019-05-07T03:28:34.563Z,101645.16
2019-05-07T03:31:08.029Z,101642.88
2019-05-07T03:33:46.550Z,101644.19
2019-05-07T03:36:15.974Z,101649.94
2019-05-07T03:38:43.858Z,101647.05
2019-05-07T03:41:12.876Z,101648.47
2019-05-07T03:43:43.430Z,101644.14
2019-05-07T03:46:14.287Z,101648.72
2019-05-07T03:48:44.384Z,101649.69
2019-05-07T03:51:13.216Z,101642.97
2019-05-07T03:53:43.555Z,101648.52
2019-05-07T03:56:13.287Z,101648.77
2019-05-07T03:58:43.220Z,101644.58
2019-05-07T04:01:13.357Z,101638.09
2019-05-07T04:03:44.720Z,101641.34
2019-05-07T04:06:12.997Z,101642.55
2019-05-07T04:08:43.352Z,101647.98
2019-05-07T04:11:13.783Z,101650.77
2019-05-07T04:13:44.062Z,101642.95
2019-05-07T04:16:13.802Z,101646.55
2019-05-07T04:18:43.722Z,101641.16
2019-05-07T04:21:14.050Z,101642.12
2019-05-07T04:23:43.853Z,101645.48
2019-05-07T04:26:22.918Z,101643.19
2019-05-07T04:29:05.543Z,101645.20
2019-05-07T04:31:35.501Z,101652.27
2019-05-07T04:34:06.115Z,101650.19
2019-05-07T04:36:35.889Z,101649.79
2019-05-07T04:39:06.546Z,101647.20
2019-05-07T04:41:34.980Z,101649.45
2019-05-07T04:44:04.061Z,101645.12
2019-05-07T04:46:33.655Z,101650.61
2019-05-07T04:49:03.714Z,101643.75
2019-05-07T04:51:43.353Z,101647.81
2019-05-07T04:54:13.194Z,101644.91
2019-05-07T04:56:43.648Z,101642.01
2019-05-07T04:59:13.165Z,101652.33
2019-05-07T05:01:43.749Z,101647.86
2019-05-07T05:04:25.443Z,101647.04
2019-05-07T05:06:42.817Z,101647.72
2019-05-07T05:09:12.551Z,101650.10
2019-05-07T05:11:43.768Z,101655.13
2019-05-07T05:14:13.654Z,101655.59
2019-05-07T05:16:42.580Z,101656.30
2019-05-07T05:19:12.616Z,101663.72
2019-05-07T05:21:54.884Z,101658.96
2019-05-07T05:24:36.227Z,101663.17
2019-05-07T05:27:04.795Z,101661.89
2019-05-07T05:29:34.593Z,101659.73
2019-05-07T05:32:03.160Z,101661.23
2019-05-07T05:34:32.886Z,101663.70
2019-05-07T05:37:02.445Z,101664.14
2019-05-07T05:39:32.022Z,101670.84
2019-05-07T05:42:02.547Z,101669.59
2019-05-07T05:44:32.665Z,101667.70
2019-05-07T05:47:02.416Z,101660.07
2019-05-07T05:49:32.170Z,101671.57
2019-05-07T05:52:05.207Z,101672.98
2019-05-07T05:54:35.394Z,101670.05
2019-05-07T05:57:14.919Z,101667.13
2019-05-07T05:59:55.510Z,101665.88
2019-05-07T06:02:28.493Z,101667.33
2019-05-07T06:04:58.616Z,101672.86
2019-05-07T06:07:34.929Z,101673.08
2019-05-07T06:10:24.010Z,101668.59
2019-05-07T06:12:57.073Z,101671.73
2019-05-07T06:15:33.504Z,101664.61
2019-05-07T06:18:17.719Z,101667.08
2019-05-07T06:20:42.784Z,101667.09
2019-05-07T06:23:15.610Z,101661.05
2019-05-07T06:25:46.498Z,101671.16
2019-05-07T06:28:14.962Z,101663.63
2019-05-07T06:30:43.708Z,101671.44
2019-05-07T06:33:12.557Z,101664.27
2019-05-07T06:35:42.890Z,101671.50
2019-05-07T06:38:12.506Z,101679.71
2019-05-07T06:40:57.867Z,101673.31
2019-05-07T06:43:27.970Z,101679.72
2019-05-07T06:45:58.043Z,101674.16
2019-05-07T06:48:38.894Z,101677.43
2019-05-07T06:50:57.342Z,101668.91
2019-05-07T06:53:33.266Z,101678.31
2019-05-07T06:56:02.932Z,101673.06
2019-05-07T06:58:33.551Z,101671.13
2019-05-07T07:01:06.567Z,101681.73
2019-05-07T07:03:36.714Z,101680.62
2019-05-07T07:06:18.774Z,101686.97
2019-05-07T07:08:52.642Z,101676.63
2019-05-07T07:11:26.469Z,101679.59
2019-05-07T07:13:55.029Z,101678.95
2019-05-07T07:16:23.619Z,101675.04
2019-05-07T07:18:55.327Z,101668.00
2019-05-07T07:21:22.297Z,101676.92
2019-05-07T07:23:52.395Z,101674.13
2019-05-07T07:26:22.104Z,101669.66
2019-05-07T07:28:52.522Z,101671.74
2019-05-07T07:31:28.760Z,101669.18
2019-05-07T07:33:59.015Z,101659.58
2019-05-07T07:36:29.101Z,101673.58
2019-05-07T07:38:57.694Z,101671.91
2019-05-07T07:41:41.967Z,101670.91
2019-05-07T07:44:10.223Z,101673.84
2019-05-07T07:46:39.725Z,101669.43
2019-05-07T07:49:14.028Z,101667.52
2019-05-07T07:51:42.095Z,101668.89
2019-05-07T07:54:08.490Z,101670.56
2019-05-07T07:56:51.881Z,101667.89
2019-05-07T07:59:25.870Z,101671.61
2019-05-07T08:01:55.967Z,101663.85
2019-05-07T08:04:24.445Z,101654.72
2019-05-07T08:07:04.842Z,101665.11
2019-05-07T08:09:34.425Z,101669.30
2019-05-07T08:12:03.821Z,101664.45
2019-05-07T08:14:33.226Z,101663.45
2019-05-07T08:17:03.374Z,101659.77
2019-05-07T08:19:32.809Z,101663.12
2019-05-07T08:22:02.839Z,101664.11
2019-05-07T08:24:32.188Z,101655.77
2019-05-07T08:27:02.376Z,101663.09
2019-05-07T08:29:32.564Z,101659.75
2019-05-07T08:32:19.662Z,101663.75
2019-05-07T08:34:56.548Z,101664.42
2019-05-07T08:37:24.976Z,101664.44
2019-05-07T08:39:53.416Z,101660.28
2019-05-07T08:42:22.797Z,101661.47
2019-05-07T08:45:05.282Z,101659.97
2019-05-07T08:47:43.428Z,101655.08
2019-05-07T08:50:12.242Z,101655.55
2019-05-07T08:52:41.975Z,101661.45
2019-05-07T08:55:12.558Z,101664.77
2019-05-07T08:57:42.054Z,101654.78
2019-05-07T09:00:12.812Z,101652.14
2019-05-07T09:02:42.071Z,101656.11
2019-05-07T09:05:11.954Z,101648.28
2019-05-07T09:07:42.419Z,101649.46
2019-05-07T09:10:12.653Z,101635.75
2019-05-07T09:12:42.890Z,101636.70
2019-05-07T09:15:12.424Z,101645.02
2019-05-07T09:17:42.288Z,101639.62
2019-05-07T09:20:12.550Z,101643.17
2019-05-07T09:22:42.721Z,101630.66
2019-05-07T09:25:13.036Z,101635.00
2019-05-07T09:27:46.157Z,101632.66
2019-05-07T09:30:28.362Z,101623.80
2019-05-07T09:33:02.513Z,101628.73
2019-05-07T09:35:32.759Z,101632.76
2019-05-07T09:38:03.027Z,101628.05
2019-05-07T09:40:32.034Z,101628.05
2019-05-07T09:43:02.375Z,101628.02
2019-05-07T09:45:32.873Z,101635.00
2019-05-07T09:48:02.911Z,101633.22
2019-05-07T09:50:32.525Z,101630.19
2019-05-07T09:53:02.354Z,101619.59
2019-05-07T09:55:32.623Z,101623.19
2019-05-07T09:58:02.137Z,101614.69
2019-05-07T10:00:32.011Z,101614.71
2019-05-07T10:03:00.679Z,101611.80
2019-05-07T10:05:29.288Z,101609.03
2019-05-07T10:07:58.300Z,101609.48
2019-05-07T10:10:26.740Z,101611.26
2019-05-07T10:13:09.211Z,101605.81
2019-05-07T10:15:37.733Z,101600.20
2019-05-07T10:18:12.414Z,101605.98
2019-05-07T10:20:42.099Z,101603.48
2019-05-07T10:23:12.432Z,101607.37
2019-05-07T10:25:41.365Z,101608.08
2019-05-07T10:28:12.344Z,101608.31
2019-05-07T10:30:42.663Z,101622.08
2019-05-07T10:33:12.337Z,101619.64
2019-05-07T10:35:43.411Z,101620.16
2019-05-07T10:38:12.420Z,101618.45
2019-05-07T10:40:41.388Z,101614.98
2019-05-07T10:43:10.448Z,101622.50
2019-05-07T10:45:56.827Z,101619.32
2019-05-07T10:48:33.109Z,101609.63
2019-05-07T10:51:02.773Z,101610.98
2019-05-07T10:53:32.019Z,101606.19
2019-05-07T10:56:02.527Z,101595.25
2019-05-07T10:58:32.010Z,101598.73
2019-05-07T11:01:02.867Z,101597.05
2019-05-07T11:03:32.491Z,101602.34
2019-05-07T11:06:01.522Z,101596.05
2019-05-07T11:08:29.950Z,101590.57
2019-05-07T11:10:58.508Z,101588.58
2019-05-07T11:13:26.944Z,101583.78
2019-05-07T11:16:02.900Z,101585.61
2019-05-07T11:18:33.107Z,101591.88
2019-05-07T11:21:03.063Z,101590.92
2019-05-07T11:23:32.695Z,101594.59
2019-05-07T11:26:02.529Z,101589.91
2019-05-07T11:28:32.562Z,101592.30
2019-05-07T11:31:02.142Z,101596.34
2019-05-07T13:18:46.938Z,101595.33
2019-05-07T13:21:15.452Z,101595.33
2019-05-07T13:23:43.890Z,101524.91
2019-05-07T13:26:13.042Z,101526.86
2019-05-07T13:28:42.044Z,101515.28
2019-05-07T13:31:12.552Z,101528.14
2019-05-07T13:33:42.129Z,101528.55
2019-05-07T13:36:12.314Z,101528.22
2019-05-07T13:38:46.408Z,101534.68
2019-05-07T13:41:16.552Z,101530.33
2019-05-07T13:43:58.908Z,101525.64
2019-05-07T13:46:29.392Z,101513.86
2019-05-07T13:48:57.991Z,101516.17
2019-05-07T18:26:58.374Z,101519.52
2019-05-07T18:29:27.162Z,101519.52
2019-05-07T18:31:57.250Z,101330.52
2019-05-07T18:34:25.745Z,101328.24
2019-05-07T18:36:54.226Z,101331.47
2019-05-07T18:39:22.685Z,101344.73
2019-05-07T18:41:57.653Z,101333.19
2019-05-07T18:44:32.326Z,101333.23
2019-05-07T18:47:02.390Z,101330.61
2019-05-07T18:49:31.011Z,101332.92
2019-05-07T18:51:59.480Z,101339.51
2019-05-07T18:54:31.363Z,101332.83
2019-05-07T18:56:58.054Z,101330.96
2019-05-07T18:59:31.804Z,101335.92
2019-05-07T19:02:02.192Z,101333.05
2019-05-07T19:04:32.651Z,101334.30
2019-05-07T19:07:02.410Z,101331.86
2019-05-07T19:09:31.942Z,101330.91
2019-05-07T19:12:00.639Z,101338.63
2019-05-07T19:14:29.143Z,101335.64
2019-05-07T19:16:57.695Z,101334.31
2019-05-07T19:19:26.113Z,101334.65
2019-05-07T19:21:54.913Z,101338.50
2019-05-07T19:24:26.214Z,101338.00
2019-05-07T19:26:53.493Z,101342.66
2019-05-07T19:29:23.282Z,101341.31
2019-05-07T19:31:52.874Z,101347.95
2019-05-07T19:34:21.946Z,101350.62
2019-05-07T19:36:52.032Z,101355.94
2019-05-07T19:39:23.188Z,101350.58
2019-05-07T19:41:52.311Z,101354.23
2019-05-07T19:44:21.423Z,101349.89
2019-05-07T19:46:52.221Z,101352.70
2019-05-07T19:49:20.139Z,101342.22
2019-05-07T19:51:48.623Z,101341.36
2019-05-07T19:54:17.056Z,101339.69
2019-05-07T19:56:45.560Z,101339.21
2019-05-07T19:59:14.084Z,101335.88
2019-05-07T20:01:47.172Z,101330.88
2019-05-07T20:04:15.623Z,101330.20
2019-05-07T20:06:44.421Z,101323.87
2019-05-07T20:09:15.664Z,101325.52
2019-05-07T20:11:45.976Z,101323.02
2019-05-07T20:14:14.418Z,101324.84
2019-05-07T20:16:42.881Z,101317.49
2019-05-07T20:19:12.110Z,101317.81
2019-05-07T20:21:40.965Z,101312.47
2019-05-07T20:24:12.305Z,101314.12
2019-05-07T20:26:42.754Z,101310.78
2019-05-07T20:29:12.332Z,101307.78
2019-05-07T20:31:42.260Z,101308.78
2019-05-07T20:34:13.133Z,101307.77
2019-05-07T20:36:42.730Z,101305.28
2019-05-07T20:39:12.779Z,101297.44
2019-05-07T20:41:42.860Z,101303.44
2019-05-07T20:44:12.087Z,101303.44
2019-05-07T20:46:42.160Z,101299.78
2019-05-07T20:49:12.866Z,101292.46
2019-05-07T20:51:41.907Z,101284.48
2019-05-07T20:54:12.873Z,101288.47
2019-05-07T20:56:48.576Z,101290.45
2019-05-07T20:59:17.072Z,101294.45
2019-05-07T21:01:45.489Z,101290.12
2019-05-07T21:04:13.952Z,101293.47
2019-05-07T21:06:43.197Z,101291.13
2019-05-07T21:09:12.624Z,101284.95
2019-05-07T21:11:43.113Z,101278.81
2019-05-07T21:14:12.186Z,101280.48
2019-05-07T21:16:42.466Z,101284.81
2019-05-07T21:19:12.803Z,101278.50
2019-05-07T21:21:42.161Z,101278.50
2019-05-07T21:24:13.099Z,101276.52
2019-05-07T21:26:42.346Z,101282.14
2019-05-07T21:29:13.448Z,101279.34
2019-05-07T21:31:43.040Z,101278.84
2019-05-07T21:34:12.504Z,101268.21
2019-05-07T21:36:43.224Z,101273.21
2019-05-07T21:39:12.999Z,101261.77
2019-05-07T21:41:42.589Z,101261.11
2019-05-07T21:44:11.388Z,101258.95
2019-05-07T21:46:39.836Z,101263.44
2019-05-07T21:49:08.473Z,101252.66
2019-05-07T21:51:36.901Z,101254.00
2019-05-07T21:54:23.734Z,101252.69
2019-05-07T21:57:12.783Z,101243.02
2019-05-07T21:59:43.288Z,101234.23
2019-05-07T22:02:22.693Z,101241.71
2019-05-07T22:04:52.901Z,101233.41
2019-05-07T22:07:22.789Z,101234.75
2019-05-07T22:09:52.324Z,101231.91
2019-05-07T22:12:22.630Z,101227.11
2019-05-07T22:14:51.517Z,101225.09
2019-05-07T22:17:21.963Z,101224.10
2019-05-07T22:19:52.353Z,101221.78
2019-05-07T22:22:24.060Z,101214.45
2019-05-07T22:24:52.738Z,101218.78
2019-05-07T22:27:22.115Z,101214.45
2019-05-07T22:29:52.588Z,101208.47
2019-05-07T22:32:25.068Z,101209.46
2019-05-07T22:34:55.431Z,101206.13
2019-05-07T22:37:23.849Z,101207.13
2019-05-07T22:39:52.346Z,101205.47
2019-05-07T22:42:22.399Z,101200.32
2019-05-07T22:44:50.919Z,101203.16
2019-05-07T22:47:19.404Z,101195.51
2019-05-07T22:49:49.060Z,101192.50
2019-05-07T22:52:18.079Z,101191.84
2019-05-07T22:54:46.513Z,101188.66
2019-05-07T22:57:16.685Z,101185.50
2019-05-07T22:59:45.122Z,101183.35
2019-05-07T23:02:13.534Z,101180.17
2019-05-07T23:04:43.207Z,101173.84
2019-05-07T23:07:12.774Z,101171.84
2019-05-07T23:09:41.995Z,101170.84
2019-05-07T23:12:12.441Z,101170.88
2019-05-07T23:14:40.835Z,101168.53
2019-05-07T23:17:09.595Z,101163.20
2019-05-07T23:19:38.078Z,101159.55
2019-05-07T23:22:06.500Z,101150.89
2019-05-07T23:24:35.020Z,101154.21
2019-05-07T23:27:03.491Z,101145.56
2019-05-07T23:29:33.028Z,101143.56
2019-05-07T23:32:02.079Z,101147.40
2019-05-07T23:34:32.571Z,101142.07
2019-05-07T23:37:02.524Z,101141.87
2019-05-07T23:39:38.162Z,101141.90
2019-05-07T23:42:12.702Z,101139.90
2019-05-07T23:44:41.994Z,101140.55
2019-05-07T23:47:12.161Z,101141.22
2019-05-07T23:49:42.942Z,101141.87
2019-05-07T23:52:12.867Z,101139.88
2019-05-07T23:54:42.515Z,101130.56
2019-05-07T23:57:14.893Z,101130.05
2019-05-07T23:59:42.173Z,101128.58
